sensor_id;sensor_type;location;lat;lon;timestamp;P1;durP1;ratioP1;P2;durP2;ratioP2
71106;SDS011;58763;47.982;11.516;2023-01-09T00:01:14;7.40;;;4.35;;
71106;SDS011;58763;47.982;11.516;2023-01-09T00:03:42;6.97;;;4.10;;
71106;SDS011;58763;47.982;11.516;2023-01-09T00:06:07;8.82;;;4.72;;
71106;SDS011;58763;47.982;11.516;2023-01-09T00:08:33;8.32;;;4.28;;
71106;SDS011;58763;47.982;11.516;2023-01-09T00:10:58;7.70;;;4.20;;
71106;SDS011;58763;47.982;11.516;2023-01-09T00:13:24;8.93;;;4.57;;
71106;SDS011;58763;47.982;11.516;2023-01-09T00:15:49;8.68;;;4.70;;
71106;SDS011;58763;47.982;11.516;2023-01-09T00:18:15;9.68;;;4.60;;
71106;SDS011;58763;47.982;11.516;2023-01-09T00:20:41;9.30;;;5.20;;
71106;SDS011;58763;47.982;11.516;2023-01-09T00:23:06;8.02;;;4.80;;
71106;SDS011;58763;47.982;11.516;2023-01-09T00:25:32;8.88;;;4.97;;
71106;SDS011;58763;47.982;11.516;2023-01-09T00:27:57;7.97;;;4.50;;
71106;SDS011;58763;47.982;11.516;2023-01-09T00:30:23;7.55;;;4.45;;
71106;SDS011;58763;47.982;11.516;2023-01-09T00:32:48;8.02;;;4.40;;
71106;SDS011;58763;47.982;11.516;2023-01-09T00:35:15;7.88;;;4.50;;
71106;SDS011;58763;47.982;11.516;2023-01-09T00:37:42;9.15;;;4.38;;
71106;SDS011;58763;47.982;11.516;2023-01-09T00:40:08;8.35;;;4.97;;
71106;SDS011;58763;47.982;11.516;2023-01-09T00:42:34;8.50;;;4.45;;
71106;SDS011;58763;47.982;11.516;2023-01-09T00:45:01;8.88;;;4.72;;
71106;SDS011;58763;47.982;11.516;2023-01-09T00:47:33;8.18;;;4.80;;
71106;SDS011;58763;47.982;11.516;2023-01-09T00:50:04;10.35;;;4.25;;
71106;SDS011;58763;47.982;11.516;2023-01-09T00:52:34;7.85;;;3.63;;
71106;SDS011;58763;47.982;11.516;2023-01-09T00:55:02;7.28;;;4.13;;
71106;SDS011;58763;47.982;11.516;2023-01-09T00:57:28;8.18;;;4.65;;
71106;SDS011;58763;47.982;11.516;2023-01-09T00:59:55;7.18;;;3.90;;
71106;SDS011;58763;47.982;11.516;2023-01-09T01:02:22;6.85;;;3.75;;
71106;SDS011;58763;47.982;11.516;2023-01-09T01:04:47;6.68;;;3.63;;
71106;SDS011;58763;47.982;11.516;2023-01-09T01:07:31;7.18;;;3.63;;
71106;SDS011;58763;47.982;11.516;2023-01-09T01:10:04;7.95;;;3.78;;
71106;SDS011;58763;47.982;11.516;2023-01-09T01:12:31;8.38;;;4.40;;
71106;SDS011;58763;47.982;11.516;2023-01-09T01:14:56;8.02;;;4.65;;
71106;SDS011;58763;47.982;11.516;2023-01-09T01:17:22;8.07;;;4.78;;
71106;SDS011;58763;47.982;11.516;2023-01-09T01:19:49;9.32;;;4.95;;
71106;SDS011;58763;47.982;11.516;2023-01-09T01:22:15;7.20;;;4.35;;
71106;SDS011;58763;47.982;11.516;2023-01-09T01:24:40;8.82;;;4.55;;
71106;SDS011;58763;47.982;11.516;2023-01-09T01:27:06;8.13;;;4.70;;
71106;SDS011;58763;47.982;11.516;2023-01-09T01:29:32;9.95;;;4.93;;
71106;SDS011;58763;47.982;11.516;2023-01-09T01:31:57;8.05;;;4.63;;
71106;SDS011;58763;47.982;11.516;2023-01-09T01:34:23;8.80;;;4.75;;
71106;SDS011;58763;47.982;11.516;2023-01-09T01:36:49;8.65;;;4.72;;
71106;SDS011;58763;47.982;11.516;2023-01-09T01:39:14;7.80;;;4.40;;
71106;SDS011;58763;47.982;11.516;2023-01-09T01:41:41;7.82;;;4.72;;
71106;SDS011;58763;47.982;11.516;2023-01-09T01:44:55;8.05;;;5.05;;
71106;SDS011;58763;47.982;11.516;2023-01-09T01:47:11;8.73;;;5.45;;
71106;SDS011;58763;47.982;11.516;2023-01-09T01:49:37;10.55;;;5.80;;
71106;SDS011;58763;47.982;11.516;2023-01-09T01:52:03;12.50;;;5.68;;
71106;SDS011;58763;47.982;11.516;2023-01-09T01:54:28;10.35;;;5.53;;
71106;SDS011;58763;47.982;11.516;2023-01-09T01:56:57;8.65;;;5.55;;
71106;SDS011;58763;47.982;11.516;2023-01-09T01:59:28;9.63;;;5.80;;
71106;SDS011;58763;47.982;11.516;2023-01-09T02:02:25;10.02;;;5.68;;
71106;SDS011;58763;47.982;11.516;2023-01-09T02:04:55;9.57;;;5.72;;
71106;SDS011;58763;47.982;11.516;2023-01-09T02:07:23;10.85;;;6.00;;
71106;SDS011;58763;47.982;11.516;2023-01-09T02:09:49;10.38;;;5.93;;
71106;SDS011;58763;47.982;11.516;2023-01-09T02:12:17;10.30;;;6.18;;
71106;SDS011;58763;47.982;11.516;2023-01-09T02:14:47;10.13;;;6.07;;
71106;SDS011;58763;47.982;11.516;2023-01-09T02:20:29;10.32;;;5.97;;
71106;SDS011;58763;47.982;11.516;2023-01-09T02:37:56;10.63;;;5.72;;
71106;SDS011;58763;47.982;11.516;2023-01-09T02:40:40;9.70;;;5.60;;
71106;SDS011;58763;47.982;11.516;2023-01-09T02:43:12;9.27;;;5.43;;
71106;SDS011;58763;47.982;11.516;2023-01-09T02:45:38;8.20;;;5.32;;
71106;SDS011;58763;47.982;11.516;2023-01-09T02:48:04;8.75;;;5.55;;
71106;SDS011;58763;47.982;11.516;2023-01-09T02:50:31;10.63;;;5.97;;
71106;SDS011;58763;47.982;11.516;2023-01-09T02:58:43;9.05;;;5.15;;
71106;SDS011;58763;47.982;11.516;2023-01-09T03:10:16;8.80;;;5.22;;
71106;SDS011;58763;47.982;11.516;2023-01-09T03:12:47;8.55;;;4.47;;
71106;SDS011;58763;47.982;11.516;2023-01-09T03:15:17;8.70;;;4.43;;
71106;SDS011;58763;47.982;11.516;2023-01-09T03:17:48;10.73;;;4.97;;
71106;SDS011;58763;47.982;11.516;2023-01-09T03:20:16;10.23;;;5.28;;
71106;SDS011;58763;47.982;11.516;2023-01-09T03:22:54;8.20;;;4.82;;
71106;SDS011;58763;47.982;11.516;2023-01-09T03:25:25;7.38;;;4.60;;
71106;SDS011;58763;47.982;11.516;2023-01-09T03:28:00;7.30;;;4.15;;
71106;SDS011;58763;47.982;11.516;2023-01-09T03:30:27;6.72;;;3.47;;
71106;SDS011;58763;47.982;11.516;2023-01-09T03:32:55;7.38;;;3.92;;
71106;SDS011;58763;47.982;11.516;2023-01-09T03:35:21;6.72;;;4.20;;
71106;SDS011;58763;47.982;11.516;2023-01-09T03:37:47;6.90;;;3.22;;
71106;SDS011;58763;47.982;11.516;2023-01-09T03:40:12;6.60;;;3.60;;
71106;SDS011;58763;47.982;11.516;2023-01-09T03:42:38;6.20;;;3.50;;
71106;SDS011;58763;47.982;11.516;2023-01-09T03:45:08;7.38;;;3.92;;
71106;SDS011;58763;47.982;11.516;2023-01-09T03:47:34;7.88;;;4.07;;
71106;SDS011;58763;47.982;11.516;2023-01-09T03:49:59;6.93;;;3.92;;
71106;SDS011;58763;47.982;11.516;2023-01-09T03:52:25;8.75;;;4.32;;
71106;SDS011;58763;47.982;11.516;2023-01-09T03:54:50;8.93;;;4.85;;
71106;SDS011;58763;47.982;11.516;2023-01-09T03:57:16;7.63;;;4.75;;
71106;SDS011;58763;47.982;11.516;2023-01-09T03:59:43;8.45;;;4.20;;
71106;SDS011;58763;47.982;11.516;2023-01-09T04:02:09;6.55;;;4.03;;
71106;SDS011;58763;47.982;11.516;2023-01-09T04:04:34;6.78;;;3.17;;
71106;SDS011;58763;47.982;11.516;2023-01-09T04:06:59;6.28;;;3.80;;
71106;SDS011;58763;47.982;11.516;2023-01-09T04:09:25;6.25;;;3.90;;
71106;SDS011;58763;47.982;11.516;2023-01-09T04:11:50;7.72;;;4.35;;
71106;SDS011;58763;47.982;11.516;2023-01-09T04:14:16;6.78;;;3.42;;
71106;SDS011;58763;47.982;11.516;2023-01-09T04:16:41;6.88;;;3.35;;
71106;SDS011;58763;47.982;11.516;2023-01-09T04:19:07;5.75;;;3.10;;
71106;SDS011;58763;47.982;11.516;2023-01-09T04:21:33;5.90;;;2.97;;
71106;SDS011;58763;47.982;11.516;2023-01-09T04:23:58;6.05;;;3.10;;
71106;SDS011;58763;47.982;11.516;2023-01-09T04:26:24;6.07;;;3.10;;
71106;SDS011;58763;47.982;11.516;2023-01-09T04:28:49;5.72;;;3.33;;
71106;SDS011;58763;47.982;11.516;2023-01-09T04:31:15;5.85;;;3.47;;
71106;SDS011;58763;47.982;11.516;2023-01-09T04:33:41;5.72;;;3.05;;
71106;SDS011;58763;47.982;11.516;2023-01-09T04:36:06;6.13;;;2.83;;
71106;SDS011;58763;47.982;11.516;2023-01-09T04:38:32;6.78;;;3.15;;
71106;SDS011;58763;47.982;11.516;2023-01-09T04:40:57;5.70;;;2.70;;
71106;SDS011;58763;47.982;11.516;2023-01-09T04:43:23;5.22;;;2.75;;
71106;SDS011;58763;47.982;11.516;2023-01-09T04:45:49;6.03;;;3.10;;
71106;SDS011;58763;47.982;11.516;2023-01-09T04:48:14;5.72;;;2.53;;
71106;SDS011;58763;47.982;11.516;2023-01-09T04:50:39;3.67;;;1.90;;
71106;SDS011;58763;47.982;11.516;2023-01-09T04:53:05;4.20;;;1.50;;
71106;SDS011;58763;47.982;11.516;2023-01-09T04:55:31;3.85;;;1.50;;
71106;SDS011;58763;47.982;11.516;2023-01-09T04:57:57;2.78;;;1.17;;
71106;SDS011;58763;47.982;11.516;2023-01-09T05:00:23;2.38;;;0.90;;
71106;SDS011;58763;47.982;11.516;2023-01-09T05:02:48;3.00;;;0.80;;
71106;SDS011;58763;47.982;11.516;2023-01-09T05:05:14;1.92;;;0.77;;
71106;SDS011;58763;47.982;11.516;2023-01-09T05:07:40;1.20;;;0.60;;
71106;SDS011;58763;47.982;11.516;2023-01-09T05:10:06;1.85;;;0.63;;
71106;SDS011;58763;47.982;11.516;2023-01-09T05:12:33;1.40;;;0.50;;
71106;SDS011;58763;47.982;11.516;2023-01-09T05:15:01;1.73;;;0.60;;
71106;SDS011;58763;47.982;11.516;2023-01-09T05:17:28;1.58;;;0.57;;
71106;SDS011;58763;47.982;11.516;2023-01-09T05:19:54;1.70;;;0.70;;
71106;SDS011;58763;47.982;11.516;2023-01-09T05:22:19;1.60;;;0.60;;
71106;SDS011;58763;47.982;11.516;2023-01-09T05:24:45;1.52;;;0.57;;
71106;SDS011;58763;47.982;11.516;2023-01-09T05:27:10;0.98;;;0.47;;
71106;SDS011;58763;47.982;11.516;2023-01-09T05:29:39;0.73;;;0.30;;
71106;SDS011;58763;47.982;11.516;2023-01-09T05:32:04;1.13;;;0.50;;
71106;SDS011;58763;47.982;11.516;2023-01-09T05:34:30;0.80;;;0.40;;
71106;SDS011;58763;47.982;11.516;2023-01-09T05:36:56;0.50;;;0.30;;
71106;SDS011;58763;47.982;11.516;2023-01-09T05:39:21;0.55;;;0.30;;
71106;SDS011;58763;47.982;11.516;2023-01-09T05:41:47;0.65;;;0.35;;
71106;SDS011;58763;47.982;11.516;2023-01-09T05:44:12;0.80;;;0.40;;
71106;SDS011;58763;47.982;11.516;2023-01-09T05:46:38;0.70;;;0.30;;
71106;SDS011;58763;47.982;11.516;2023-01-09T05:49:04;0.55;;;0.25;;
71106;SDS011;58763;47.982;11.516;2023-01-09T05:51:29;0.60;;;0.30;;
71106;SDS011;58763;47.982;11.516;2023-01-09T05:53:56;0.82;;;0.40;;
71106;SDS011;58763;47.982;11.516;2023-01-09T05:56:22;0.43;;;0.20;;
71106;SDS011;58763;47.982;11.516;2023-01-09T05:58:48;0.55;;;0.20;;
71106;SDS011;58763;47.982;11.516;2023-01-09T06:01:14;0.47;;;0.20;;
71106;SDS011;58763;47.982;11.516;2023-01-09T06:03:39;0.68;;;0.30;;
71106;SDS011;58763;47.982;11.516;2023-01-09T06:06:05;0.40;;;0.30;;
71106;SDS011;58763;47.982;11.516;2023-01-09T06:08:31;0.38;;;0.30;;
71106;SDS011;58763;47.982;11.516;2023-01-09T06:10:57;0.30;;;0.20;;
71106;SDS011;58763;47.982;11.516;2023-01-09T06:13:22;0.20;;;0.13;;
71106;SDS011;58763;47.982;11.516;2023-01-09T06:15:48;0.30;;;0.20;;
71106;SDS011;58763;47.982;11.516;2023-01-09T06:18:13;0.20;;;0.20;;
71106;SDS011;58763;47.982;11.516;2023-01-09T06:20:39;1.23;;;0.20;;
71106;SDS011;58763;47.982;11.516;2023-01-09T06:23:04;0.30;;;0.20;;
71106;SDS011;58763;47.982;11.516;2023-01-09T06:25:30;0.40;;;0.28;;
71106;SDS011;58763;47.982;11.516;2023-01-09T06:27:56;0.50;;;0.20;;
71106;SDS011;58763;47.982;11.516;2023-01-09T06:30:21;0.60;;;0.30;;
71106;SDS011;58763;47.982;11.516;2023-01-09T06:32:47;0.70;;;0.30;;
71106;SDS011;58763;47.982;11.516;2023-01-09T06:35:14;0.40;;;0.20;;
71106;SDS011;58763;47.982;11.516;2023-01-09T06:37:44;0.50;;;0.30;;
71106;SDS011;58763;47.982;11.516;2023-01-09T06:40:11;0.30;;;0.22;;
71106;SDS011;58763;47.982;11.516;2023-01-09T06:42:37;0.30;;;0.20;;
71106;SDS011;58763;47.982;11.516;2023-01-09T06:45:03;0.68;;;0.30;;
71106;SDS011;58763;47.982;11.516;2023-01-09T06:47:29;0.40;;;0.20;;
71106;SDS011;58763;47.982;11.516;2023-01-09T06:49:54;0.50;;;0.20;;
71106;SDS011;58763;47.982;11.516;2023-01-09T06:52:21;0.50;;;0.30;;
71106;SDS011;58763;47.982;11.516;2023-01-09T06:54:47;0.80;;;0.32;;
71106;SDS011;58763;47.982;11.516;2023-01-09T06:57:12;0.95;;;0.38;;
71106;SDS011;58763;47.982;11.516;2023-01-09T06:59:40;0.40;;;0.22;;
71106;SDS011;58763;47.982;11.516;2023-01-09T07:02:08;0.50;;;0.30;;
71106;SDS011;58763;47.982;11.516;2023-01-09T07:04:42;0.50;;;0.30;;
71106;SDS011;58763;47.982;11.516;2023-01-09T07:07:08;0.50;;;0.30;;
71106;SDS011;58763;47.982;11.516;2023-01-09T07:09:33;0.25;;;0.20;;
71106;SDS011;58763;47.982;11.516;2023-01-09T07:12:00;0.40;;;0.20;;
71106;SDS011;58763;47.982;11.516;2023-01-09T07:14:25;0.82;;;0.32;;
71106;SDS011;58763;47.982;11.516;2023-01-09T07:16:51;0.50;;;0.22;;
71106;SDS011;58763;47.982;11.516;2023-01-09T07:19:16;0.40;;;0.30;;
71106;SDS011;58763;47.982;11.516;2023-01-09T07:21:42;0.85;;;0.20;;
71106;SDS011;58763;47.982;11.516;2023-01-09T07:24:07;0.70;;;0.40;;
71106;SDS011;58763;47.982;11.516;2023-01-09T07:26:32;0.50;;;0.30;;
71106;SDS011;58763;47.982;11.516;2023-01-09T07:28:58;0.70;;;0.25;;
71106;SDS011;58763;47.982;11.516;2023-01-09T07:31:23;0.22;;;0.22;;
71106;SDS011;58763;47.982;11.516;2023-01-09T07:33:49;0.90;;;0.30;;
71106;SDS011;58763;47.982;11.516;2023-01-09T07:36:14;0.38;;;0.28;;
71106;SDS011;58763;47.982;11.516;2023-01-09T07:38:40;0.47;;;0.30;;
71106;SDS011;58763;47.982;11.516;2023-01-09T07:41:06;1.75;;;0.55;;
71106;SDS011;58763;47.982;11.516;2023-01-09T07:43:31;0.80;;;0.38;;
71106;SDS011;58763;47.982;11.516;2023-01-09T07:45:58;1.17;;;0.25;;
71106;SDS011;58763;47.982;11.516;2023-01-09T07:48:24;0.80;;;0.30;;
71106;SDS011;58763;47.982;11.516;2023-01-09T07:50:49;0.90;;;0.20;;
71106;SDS011;58763;47.982;11.516;2023-01-09T07:53:15;0.98;;;0.35;;
71106;SDS011;58763;47.982;11.516;2023-01-09T07:55:43;0.43;;;0.20;;
71106;SDS011;58763;47.982;11.516;2023-01-09T07:58:08;0.82;;;0.30;;
71106;SDS011;58763;47.982;11.516;2023-01-09T08:00:34;0.80;;;0.35;;
71106;SDS011;58763;47.982;11.516;2023-01-09T08:03:00;0.77;;;0.40;;
71106;SDS011;58763;47.982;11.516;2023-01-09T08:05:26;1.00;;;0.30;;
71106;SDS011;58763;47.982;11.516;2023-01-09T08:07:51;1.35;;;0.40;;
71106;SDS011;58763;47.982;11.516;2023-01-09T08:10:17;0.65;;;0.35;;
71106;SDS011;58763;47.982;11.516;2023-01-09T08:12:44;0.30;;;0.30;;
71106;SDS011;58763;47.982;11.516;2023-01-09T08:15:10;0.90;;;0.43;;
71106;SDS011;58763;47.982;11.516;2023-01-09T08:17:36;1.40;;;0.30;;
71106;SDS011;58763;47.982;11.516;2023-01-09T08:20:01;0.73;;;0.30;;
71106;SDS011;58763;47.982;11.516;2023-01-09T08:22:27;1.33;;;0.30;;
71106;SDS011;58763;47.982;11.516;2023-01-09T08:24:53;0.50;;;0.30;;
71106;SDS011;58763;47.982;11.516;2023-01-09T08:27:18;1.73;;;0.25;;
71106;SDS011;58763;47.982;11.516;2023-01-09T08:29:44;0.70;;;0.30;;
71106;SDS011;58763;47.982;11.516;2023-01-09T08:32:09;0.60;;;0.40;;
71106;SDS011;58763;47.982;11.516;2023-01-09T08:34:35;1.67;;;0.40;;
71106;SDS011;58763;47.982;11.516;2023-01-09T08:37:00;1.30;;;0.40;;
71106;SDS011;58763;47.982;11.516;2023-01-09T08:39:26;1.17;;;0.40;;
71106;SDS011;58763;47.982;11.516;2023-01-09T08:41:51;1.25;;;0.32;;
71106;SDS011;58763;47.982;11.516;2023-01-09T08:44:36;0.50;;;0.20;;
71106;SDS011;58763;47.982;11.516;2023-01-09T08:47:20;1.13;;;0.40;;
71106;SDS011;58763;47.982;11.516;2023-01-09T08:49:48;1.38;;;0.35;;
71106;SDS011;58763;47.982;11.516;2023-01-09T08:52:13;1.15;;;0.35;;
71106;SDS011;58763;47.982;11.516;2023-01-09T08:54:49;2.13;;;0.40;;
71106;SDS011;58763;47.982;11.516;2023-01-09T08:57:15;2.63;;;0.32;;
71106;SDS011;58763;47.982;11.516;2023-01-09T08:59:40;0.95;;;0.30;;
71106;SDS011;58763;47.982;11.516;2023-01-09T09:02:06;1.98;;;0.52;;
71106;SDS011;58763;47.982;11.516;2023-01-09T09:04:31;1.25;;;0.52;;
71106;SDS011;58763;47.982;11.516;2023-01-09T09:06:57;1.23;;;0.40;;
71106;SDS011;58763;47.982;11.516;2023-01-09T09:09:22;4.15;;;0.40;;
71106;SDS011;58763;47.982;11.516;2023-01-09T09:11:49;0.85;;;0.40;;
71106;SDS011;58763;47.982;11.516;2023-01-09T09:14:15;1.13;;;0.45;;
71106;SDS011;58763;47.982;11.516;2023-01-09T09:16:59;1.58;;;0.38;;
71106;SDS011;58763;47.982;11.516;2023-01-09T09:19:25;1.10;;;0.40;;
71106;SDS011;58763;47.982;11.516;2023-01-09T09:21:50;0.80;;;0.30;;
71106;SDS011;58763;47.982;11.516;2023-01-09T09:24:16;2.30;;;0.50;;
71106;SDS011;58763;47.982;11.516;2023-01-09T09:26:41;2.25;;;0.40;;
71106;SDS011;58763;47.982;11.516;2023-01-09T09:29:07;1.58;;;0.50;;
71106;SDS011;58763;47.982;11.516;2023-01-09T09:31:32;3.20;;;0.47;;
71106;SDS011;58763;47.982;11.516;2023-01-09T09:34:01;2.80;;;1.25;;
71106;SDS011;58763;47.982;11.516;2023-01-09T09:36:29;1.58;;;0.38;;
71106;SDS011;58763;47.982;11.516;2023-01-09T09:38:54;2.20;;;0.50;;
71106;SDS011;58763;47.982;11.516;2023-01-09T09:50:42;4.15;;;0.40;;
71106;SDS011;58763;47.982;11.516;2023-01-09T09:53:28;0.98;;;0.28;;
71106;SDS011;58763;47.982;11.516;2023-01-09T09:56:00;2.45;;;0.40;;
71106;SDS011;58763;47.982;11.516;2023-01-09T10:00:58;1.35;;;0.30;;
71106;SDS011;58763;47.982;11.516;2023-01-09T10:11:52;2.13;;;0.50;;
71106;SDS011;58763;47.982;11.516;2023-01-09T10:14:24;2.10;;;0.50;;
71106;SDS011;58763;47.982;11.516;2023-01-09T10:22:25;2.63;;;0.47;;
71106;SDS011;58763;47.982;11.516;2023-01-09T10:28:07;2.63;;;0.38;;
71106;SDS011;58763;47.982;11.516;2023-01-09T10:30:45;2.17;;;0.43;;
71106;SDS011;58763;47.982;11.516;2023-01-09T10:36:13;2.95;;;0.50;;
71106;SDS011;58763;47.982;11.516;2023-01-09T10:38:49;3.38;;;0.47;;
71106;SDS011;58763;47.982;11.516;2023-01-09T10:41:23;3.97;;;0.40;;
71106;SDS011;58763;47.982;11.516;2023-01-09T10:43:54;4.60;;;0.45;;
71106;SDS011;58763;47.982;11.516;2023-01-09T10:46:29;2.08;;;0.47;;
71106;SDS011;58763;47.982;11.516;2023-01-09T10:49:11;2.03;;;0.40;;
71106;SDS011;58763;47.982;11.516;2023-01-09T10:51:51;3.47;;;0.68;;
71106;SDS011;58763;47.982;11.516;2023-01-09T10:54:23;1.67;;;0.40;;
71106;SDS011;58763;47.982;11.516;2023-01-09T10:56:57;1.85;;;0.30;;
71106;SDS011;58763;47.982;11.516;2023-01-09T10:59:29;4.50;;;0.50;;
71106;SDS011;58763;47.982;11.516;2023-01-09T11:01:55;3.28;;;0.60;;
71106;SDS011;58763;47.982;11.516;2023-01-09T11:04:25;3.85;;;0.50;;
71106;SDS011;58763;47.982;11.516;2023-01-09T11:06:58;2.90;;;0.60;;
71106;SDS011;58763;47.982;11.516;2023-01-09T11:09:26;1.80;;;0.40;;
71106;SDS011;58763;47.982;11.516;2023-01-09T11:11:52;0.90;;;0.40;;
71106;SDS011;58763;47.982;11.516;2023-01-09T11:14:24;1.67;;;0.30;;
71106;SDS011;58763;47.982;11.516;2023-01-09T11:19:22;2.00;;;0.40;;
71106;SDS011;58763;47.982;11.516;2023-01-09T11:21:48;3.72;;;0.45;;
71106;SDS011;58763;47.982;11.516;2023-01-09T11:26:43;3.72;;;0.50;;
71106;SDS011;58763;47.982;11.516;2023-01-09T11:29:10;0.95;;;0.32;;
71106;SDS011;58763;47.982;11.516;2023-01-09T11:31:38;1.55;;;0.30;;
71106;SDS011;58763;47.982;11.516;2023-01-09T11:34:05;5.43;;;0.50;;
71106;SDS011;58763;47.982;11.516;2023-01-09T11:36:40;2.10;;;0.38;;
71106;SDS011;58763;47.982;11.516;2023-01-09T11:39:13;3.75;;;0.30;;
71106;SDS011;58763;47.982;11.516;2023-01-09T11:41:53;4.65;;;0.40;;
71106;SDS011;58763;47.982;11.516;2023-01-09T11:44:22;2.42;;;0.32;;
71106;SDS011;58763;47.982;11.516;2023-01-09T11:46:49;2.08;;;0.40;;
71106;SDS011;58763;47.982;11.516;2023-01-09T11:54:40;2.35;;;0.50;;
71106;SDS011;58763;47.982;11.516;2023-01-09T11:57:28;3.08;;;0.40;;
71106;SDS011;58763;47.982;11.516;2023-01-09T11:59:57;3.15;;;0.50;;
71106;SDS011;58763;47.982;11.516;2023-01-09T12:13:52;1.23;;;0.50;;
71106;SDS011;58763;47.982;11.516;2023-01-09T12:19:50;6.82;;;3.75;;
71106;SDS011;58763;47.982;11.516;2023-01-09T12:30:53;5.95;;;3.47;;
71106;SDS011;58763;47.982;11.516;2023-01-09T12:36:08;2.25;;;0.70;;
71106;SDS011;58763;47.982;11.516;2023-01-09T12:43:58;1.98;;;0.63;;
71106;SDS011;58763;47.982;11.516;2023-01-09T12:50:25;2.35;;;0.70;;
71106;SDS011;58763;47.982;11.516;2023-01-09T12:53:04;7.22;;;3.95;;
71106;SDS011;58763;47.982;11.516;2023-01-09T12:56:23;4.47;;;1.50;;
71106;SDS011;58763;47.982;11.516;2023-01-09T12:58:31;5.82;;;3.35;;
71106;SDS011;58763;47.982;11.516;2023-01-09T13:01:16;10.55;;;1.27;;
71106;SDS011;58763;47.982;11.516;2023-01-09T13:06:41;4.05;;;1.50;;
71106;SDS011;58763;47.982;11.516;2023-01-09T13:09:21;4.45;;;1.90;;
71106;SDS011;58763;47.982;11.516;2023-01-09T13:12:06;4.60;;;1.95;;
71106;SDS011;58763;47.982;11.516;2023-01-09T13:17:29;6.53;;;1.00;;
71106;SDS011;58763;47.982;11.516;2023-01-09T13:20:01;5.40;;;1.35;;
71106;SDS011;58763;47.982;11.516;2023-01-09T13:22:41;3.85;;;1.80;;
71106;SDS011;58763;47.982;11.516;2023-01-09T13:33:43;1.90;;;0.30;;
71106;SDS011;58763;47.982;11.516;2023-01-09T13:36:47;1.70;;;0.40;;
71106;SDS011;58763;47.982;11.516;2023-01-09T13:39:17;1.83;;;0.47;;
71106;SDS011;58763;47.982;11.516;2023-01-09T13:41:46;1.65;;;0.40;;
71106;SDS011;58763;47.982;11.516;2023-01-09T13:44:34;1.40;;;0.38;;
71106;SDS011;58763;47.982;11.516;2023-01-09T13:47:01;2.08;;;0.50;;
71106;SDS011;58763;47.982;11.516;2023-01-09T13:52:27;1.58;;;0.50;;
71106;SDS011;58763;47.982;11.516;2023-01-09T13:55:03;0.60;;;0.30;;
71106;SDS011;58763;47.982;11.516;2023-01-09T14:03:21;1.08;;;0.40;;
71106;SDS011;58763;47.982;11.516;2023-01-09T14:08:17;2.28;;;0.40;;
71106;SDS011;58763;47.982;11.516;2023-01-09T14:10:46;1.63;;;0.47;;
71106;SDS011;58763;47.982;11.516;2023-01-09T14:16:05;2.08;;;0.50;;
71106;SDS011;58763;47.982;11.516;2023-01-09T14:18:38;1.02;;;0.40;;
71106;SDS011;58763;47.982;11.516;2023-01-09T14:21:11;2.05;;;0.30;;
71106;SDS011;58763;47.982;11.516;2023-01-09T14:23:51;1.75;;;0.40;;
71106;SDS011;58763;47.982;11.516;2023-01-09T14:26:20;1.70;;;0.50;;
71106;SDS011;58763;47.982;11.516;2023-01-09T14:37:32;0.65;;;0.40;;
71106;SDS011;58763;47.982;11.516;2023-01-09T14:39:59;1.58;;;0.40;;
71106;SDS011;58763;47.982;11.516;2023-01-09T14:42:26;0.70;;;0.30;;
71106;SDS011;58763;47.982;11.516;2023-01-09T14:45:04;2.40;;;0.40;;
71106;SDS011;58763;47.982;11.516;2023-01-09T14:47:38;2.80;;;0.40;;
71106;SDS011;58763;47.982;11.516;2023-01-09T14:58:47;1.88;;;0.30;;
71106;SDS011;58763;47.982;11.516;2023-01-09T15:01:17;1.42;;;0.40;;
71106;SDS011;58763;47.982;11.516;2023-01-09T15:03:50;1.70;;;0.50;;
71106;SDS011;58763;47.982;11.516;2023-01-09T15:06:23;3.92;;;0.43;;
71106;SDS011;58763;47.982;11.516;2023-01-09T15:08:56;1.25;;;0.30;;
71106;SDS011;58763;47.982;11.516;2023-01-09T15:11:26;1.00;;;0.32;;
71106;SDS011;58763;47.982;11.516;2023-01-09T15:13:53;1.33;;;0.40;;
71106;SDS011;58763;47.982;11.516;2023-01-09T15:16:23;0.88;;;0.40;;
71106;SDS011;58763;47.982;11.516;2023-01-09T15:18:51;2.60;;;0.52;;
71106;SDS011;58763;47.982;11.516;2023-01-09T15:21:23;1.50;;;0.40;;
71106;SDS011;58763;47.982;11.516;2023-01-09T15:26:23;1.38;;;0.50;;
71106;SDS011;58763;47.982;11.516;2023-01-09T15:28:51;1.55;;;0.40;;
71106;SDS011;58763;47.982;11.516;2023-01-09T15:31:24;1.13;;;0.43;;
71106;SDS011;58763;47.982;11.516;2023-01-09T15:33:50;2.53;;;0.40;;
71106;SDS011;58763;47.982;11.516;2023-01-09T15:36:23;1.35;;;0.40;;
71106;SDS011;58763;47.982;11.516;2023-01-09T15:38:51;1.27;;;0.50;;
71106;SDS011;58763;47.982;11.516;2023-01-09T15:41:18;2.17;;;0.40;;
71106;SDS011;58763;47.982;11.516;2023-01-09T15:44:11;2.05;;;0.50;;
71106;SDS011;58763;47.982;11.516;2023-01-09T15:46:41;1.05;;;0.40;;
71106;SDS011;58763;47.982;11.516;2023-01-09T15:49:11;1.98;;;0.50;;
71106;SDS011;58763;47.982;11.516;2023-01-09T15:51:38;1.27;;;0.38;;
71106;SDS011;58763;47.982;11.516;2023-01-09T15:54:08;2.22;;;0.43;;
71106;SDS011;58763;47.982;11.516;2023-01-09T15:56:39;1.15;;;0.30;;
71106;SDS011;58763;47.982;11.516;2023-01-09T15:59:20;2.20;;;0.60;;
71106;SDS011;58763;47.982;11.516;2023-01-09T16:01:53;1.25;;;0.40;;
71106;SDS011;58763;47.982;11.516;2023-01-09T16:04:48;0.90;;;0.30;;
71106;SDS011;58763;47.982;11.516;2023-01-09T16:07:17;1.27;;;0.50;;
71106;SDS011;58763;47.982;11.516;2023-01-09T16:09:45;1.23;;;0.38;;
71106;SDS011;58763;47.982;11.516;2023-01-09T16:12:21;0.55;;;0.30;;
71106;SDS011;58763;47.982;11.516;2023-01-09T16:14:53;0.98;;;0.40;;
71106;SDS011;58763;47.982;11.516;2023-01-09T16:17:21;1.77;;;0.50;;
71106;SDS011;58763;47.982;11.516;2023-01-09T16:19:56;1.13;;;0.43;;
71106;SDS011;58763;47.982;11.516;2023-01-09T16:22:37;1.50;;;0.50;;
71106;SDS011;58763;47.982;11.516;2023-01-09T16:30:51;3.40;;;0.70;;
71106;SDS011;58763;47.982;11.516;2023-01-09T16:33:20;1.85;;;0.60;;
71106;SDS011;58763;47.982;11.516;2023-01-09T16:35:48;2.33;;;0.60;;
71106;SDS011;58763;47.982;11.516;2023-01-09T16:38:14;2.03;;;0.50;;
71106;SDS011;58763;47.982;11.516;2023-01-09T16:41:23;1.40;;;0.40;;
71106;SDS011;58763;47.982;11.516;2023-01-09T16:43:48;1.40;;;0.52;;
71106;SDS011;58763;47.982;11.516;2023-01-09T16:46:15;1.23;;;0.50;;
71106;SDS011;58763;47.982;11.516;2023-01-09T16:48:44;2.05;;;0.57;;
71106;SDS011;58763;47.982;11.516;2023-01-09T16:51:17;2.00;;;0.60;;
71106;SDS011;58763;47.982;11.516;2023-01-09T16:53:45;2.03;;;1.30;;
71106;SDS011;58763;47.982;11.516;2023-01-09T16:56:16;1.98;;;0.55;;
71106;SDS011;58763;47.982;11.516;2023-01-09T16:58:44;1.73;;;0.57;;
71106;SDS011;58763;47.982;11.516;2023-01-09T17:01:10;1.45;;;0.60;;
71106;SDS011;58763;47.982;11.516;2023-01-09T17:03:40;2.75;;;0.50;;
71106;SDS011;58763;47.982;11.516;2023-01-09T17:06:09;2.55;;;0.70;;
71106;SDS011;58763;47.982;11.516;2023-01-09T17:08:58;1.75;;;0.60;;
71106;SDS011;58763;47.982;11.516;2023-01-09T17:11:24;1.60;;;0.52;;
71106;SDS011;58763;47.982;11.516;2023-01-09T17:13:55;2.22;;;0.80;;
71106;SDS011;58763;47.982;11.516;2023-01-09T17:16:25;3.67;;;0.60;;
71106;SDS011;58763;47.982;11.516;2023-01-09T17:18:50;3.00;;;0.50;;
71106;SDS011;58763;47.982;11.516;2023-01-09T17:21:20;2.92;;;0.60;;
71106;SDS011;58763;47.982;11.516;2023-01-09T17:23:47;5.07;;;0.60;;
71106;SDS011;58763;47.982;11.516;2023-01-09T17:26:32;2.30;;;0.73;;
71106;SDS011;58763;47.982;11.516;2023-01-09T17:29:18;2.13;;;0.55;;